createdAt,value
2019-04-05T00:03:42.442Z,38.17
2019-04-05T00:08:39.432Z,40.53
2019-04-05T00:13:36.438Z,39.37
2019-04-05T00:18:33.425Z,41.47
2019-04-05T00:23:31.593Z,44.87
2019-04-05T00:28:28.546Z,35.43
2019-04-05T00:33:25.888Z,32.53
2019-04-05T00:38:23.193Z,32.23
2019-04-05T00:43:20.164Z,34.87
2019-04-05T00:48:17.201Z,36.43
2019-04-05T00:53:14.105Z,40.90
2019-04-05T00:58:11.105Z,37.93
2019-04-05T01:03:08.022Z,38.77
2019-04-05T01:08:05.001Z,40.17
2019-04-05T01:13:02.217Z,34.50
2019-04-05T01:17:59.745Z,37.67
2019-04-05T01:22:57.274Z,38.77
2019-04-05T01:27:55.077Z,36.27
2019-04-05T01:32:51.998Z,37.17
2019-04-05T01:37:49.176Z,40.03
2019-04-05T01:42:46.184Z,38.00
2019-04-05T01:47:43.147Z,37.93
2019-04-05T01:52:41.379Z,39.77
2019-04-05T01:57:38.332Z,37.83
2019-04-05T02:02:35.261Z,36.80
2019-04-05T02:07:32.464Z,37.10
2019-04-05T02:12:29.374Z,35.53
2019-04-05T02:17:27.309Z,37.90
2019-04-05T02:22:24.251Z,38.83
2019-04-05T02:27:21.242Z,32.73
2019-04-05T02:32:18.221Z,32.77
2019-04-05T02:37:15.308Z,32.53
2019-04-05T02:42:12.632Z,34.47
2019-04-05T02:47:09.713Z,28.20
2019-04-05T02:52:07.139Z,26.07
2019-04-05T02:57:04.315Z,26.50
2019-04-05T03:02:03.227Z,24.17
2019-04-05T03:07:00.293Z,26.73
2019-04-05T03:11:57.835Z,27.37
2019-04-05T03:16:55.014Z,27.50
2019-04-05T03:21:57.391Z,29.87
2019-04-05T03:26:59.777Z,31.80
2019-04-05T03:31:57.131Z,26.13
2019-04-05T03:36:54.350Z,23.10
2019-04-05T03:41:52.192Z,23.83
2019-04-05T03:46:57.183Z,27.67
2019-04-05T03:51:49.353Z,27.00
2019-04-05T03:56:46.693Z,24.50
2019-04-05T04:01:43.805Z,24.63
2019-04-05T04:06:40.799Z,22.70
2019-04-05T04:11:37.817Z,23.30
2019-04-05T04:16:35.870Z,29.03
2019-04-05T04:21:40.767Z,23.97
2019-04-05T04:26:37.993Z,26.23
2019-04-05T04:31:35.055Z,23.20
2019-04-05T04:36:32.165Z,22.73
2019-04-05T04:41:31.934Z,26.90
2019-04-05T04:46:29.374Z,24.83
2019-04-05T04:51:26.618Z,25.27
2019-04-05T04:56:23.657Z,27.70
2019-04-05T05:01:20.714Z,25.57
2019-04-05T05:06:18.036Z,24.67
2019-04-05T05:11:15.414Z,25.90
2019-04-05T05:16:12.749Z,22.90
2019-04-05T05:21:09.726Z,21.93
2019-04-05T05:26:07.113Z,22.03
2019-04-05T05:31:04.345Z,24.60
2019-04-05T05:36:01.505Z,25.03
2019-04-05T05:40:58.515Z,22.40
2019-04-05T05:45:55.538Z,22.93
2019-04-05T05:50:52.505Z,25.57
2019-04-05T05:55:49.431Z,25.57
2019-04-05T06:00:46.664Z,23.13
2019-04-05T06:05:47.845Z,23.27
2019-04-05T06:10:44.973Z,25.37
2019-04-05T06:15:42.112Z,22.87
2019-04-05T06:20:39.611Z,20.50
2019-04-05T06:25:37.075Z,18.80
2019-04-05T06:30:34.412Z,17.50
2019-04-05T06:35:31.423Z,16.63
2019-04-05T06:40:40.076Z,17.27
2019-04-05T06:45:29.314Z,20.17
2019-04-05T06:50:26.544Z,15.00
2019-04-05T06:55:23.632Z,15.63
2019-04-05T07:00:26.174Z,14.33
2019-04-05T07:05:25.166Z,13.30
2019-04-05T07:10:23.451Z,12.43
2019-04-05T07:15:27.483Z,15.13
2019-04-05T07:20:29.485Z,12.77
2019-04-05T07:25:29.215Z,12.00
2019-04-05T07:30:32.839Z,11.63
2019-04-05T07:35:33.567Z,12.87
2019-04-05T07:40:34.471Z,11.53
2019-04-05T07:45:31.606Z,10.57
2019-04-05T07:50:32.778Z,10.07
2019-04-05T07:55:31.674Z,12.50
2019-04-05T08:00:49.408Z,8.70
2019-04-05T08:05:48.856Z,10.00
2019-04-05T08:10:45.916Z,8.30
2019-04-05T08:15:44.376Z,11.33
2019-04-05T08:20:41.589Z,8.43
2019-04-05T08:25:41.311Z,11.60
2019-04-05T08:30:38.756Z,12.47
2019-04-05T08:35:35.863Z,9.53
2019-04-05T08:40:35.764Z,9.80
2019-04-05T08:45:32.849Z,8.93
2019-04-05T08:50:29.991Z,10.07
2019-04-05T08:55:27.560Z,8.10
2019-04-05T09:00:24.659Z,10.70
2019-04-05T09:05:21.641Z,8.70
2019-04-05T09:10:19.732Z,15.93
2019-04-05T09:15:19.590Z,10.60
2019-04-05T09:20:18.073Z,9.77
2019-04-05T09:25:19.713Z,12.10
2019-04-05T09:30:27.153Z,8.83
2019-04-05T09:35:28.891Z,11.03
2019-04-05T09:40:25.877Z,8.43
2019-04-05T09:45:22.993Z,9.30
2019-04-05T09:50:24.927Z,8.77
2019-04-05T09:55:25.064Z,10.33
2019-04-05T10:00:25.460Z,9.13
2019-04-05T10:05:23.523Z,9.70
2019-04-05T10:10:20.986Z,8.70
2019-04-05T10:15:21.564Z,9.67
2019-04-05T10:20:17.468Z,11.10
2019-04-05T10:25:14.833Z,9.20
2019-04-05T10:30:13.662Z,9.03
2019-04-05T10:35:12.686Z,10.07
2019-04-05T10:40:10.302Z,14.10
2019-04-05T10:45:17.112Z,9.83
2019-04-05T10:50:13.978Z,8.67
2019-04-05T10:55:13.502Z,11.33
2019-04-05T11:00:18.161Z,10.03
2019-04-05T11:05:15.325Z,11.40
2019-04-05T11:10:16.676Z,11.93
2019-04-05T11:15:18.614Z,10.30
2019-04-05T11:20:22.945Z,12.40
2019-04-05T11:25:15.304Z,13.23
2019-04-05T11:30:13.055Z,9.27
2019-04-05T11:35:10.280Z,14.67
2019-04-05T11:40:10.051Z,16.23
2019-04-05T11:45:09.726Z,14.83
2019-04-05T11:50:10.454Z,14.93
2019-04-05T11:55:07.564Z,14.20
2019-04-05T12:00:12.581Z,14.33
2019-04-05T12:05:13.480Z,14.47
2019-04-05T12:10:11.369Z,13.70
2019-04-05T12:15:09.590Z,17.63
2019-04-05T12:20:08.265Z,17.70
2019-04-05T12:25:06.317Z,17.97
2019-04-05T12:30:07.821Z,16.40
2019-04-05T12:35:08.303Z,16.03
2019-04-05T12:40:09.555Z,17.23
2019-04-05T12:45:06.520Z,16.27
2019-04-05T12:50:06.591Z,14.83
2019-04-05T12:55:05.147Z,15.63
2019-04-05T13:00:13.389Z,15.60
2019-04-05T13:05:10.951Z,15.43
2019-04-05T13:10:08.893Z,15.20
2019-04-05T13:15:13.893Z,17.07
2019-04-05T13:20:07.731Z,16.00
2019-04-05T13:25:06.313Z,16.97
2019-04-05T13:30:05.895Z,17.23
2019-04-05T13:35:16.714Z,17.13
2019-04-05T13:40:13.291Z,21.77
2019-04-05T13:45:10.669Z,21.23
2019-04-05T13:50:11.339Z,20.33
2019-04-05T13:55:11.237Z,18.33
2019-04-05T14:00:12.834Z,19.73
2019-04-05T14:05:12.419Z,25.70
2019-04-05T14:10:12.333Z,20.77
2019-04-05T14:15:12.157Z,21.47
2019-04-05T14:20:11.991Z,22.10
2019-04-05T14:25:12.078Z,22.87
2019-04-05T14:30:13.607Z,16.40
2019-04-05T14:35:11.548Z,19.93
2019-04-05T14:40:09.191Z,17.40
2019-04-05T14:45:09.608Z,31.40
2019-04-05T14:50:12.234Z,27.57
2019-04-05T14:55:09.963Z,24.67
2019-04-05T15:00:14.733Z,49.23
2019-04-05T15:05:12.408Z,21.87
2019-04-05T15:10:13.532Z,29.43
2019-04-05T15:15:12.157Z,22.17
2019-04-05T15:20:09.735Z,50.47
2019-04-05T15:25:11.436Z,81.03
2019-04-05T15:30:09.109Z,29.03
2019-04-05T15:35:07.239Z,114.77
2019-04-05T15:40:07.032Z,41.40
2019-04-05T15:45:09.234Z,49.83
2019-04-05T15:50:06.824Z,48.63
2019-04-05T15:55:05.833Z,39.17
2019-04-05T16:00:10.189Z,40.33
2019-04-05T16:05:07.900Z,44.27
2019-04-05T16:10:09.081Z,41.23
2019-04-05T16:15:06.672Z,36.57
2019-04-05T16:20:09.633Z,23.27
2019-04-05T16:25:08.681Z,28.17
2019-04-05T16:30:06.628Z,16.17
2019-04-05T16:35:06.833Z,18.63
2019-04-05T16:40:06.851Z,16.40
2019-04-05T16:45:07.289Z,17.57
2019-04-05T16:50:07.105Z,24.90
2019-04-05T16:55:05.342Z,22.30
2019-04-05T17:00:10.042Z,24.37
2019-04-05T17:05:07.418Z,18.10
2019-04-05T17:10:05.649Z,20.20
2019-04-05T17:15:05.875Z,18.83
2019-04-05T17:20:04.951Z,20.57
2019-04-05T17:25:03.433Z,19.47
2019-04-05T17:30:00.551Z,20.87
2019-04-05T17:34:57.613Z,22.57
2019-04-05T17:39:54.678Z,25.83
2019-04-05T17:44:51.732Z,26.27
2019-04-05T17:49:48.760Z,26.77
2019-04-05T17:54:45.814Z,25.03
2019-04-05T17:59:44.828Z,35.93
2019-04-05T18:04:41.933Z,37.60
2019-04-05T18:09:41.376Z,36.27
2019-04-05T18:14:38.836Z,49.13
2019-04-05T18:19:37.085Z,57.07
2019-04-05T18:24:35.543Z,51.43
2019-04-05T18:29:32.753Z,39.63
2019-04-05T18:34:29.839Z,41.93
2019-04-05T18:39:26.984Z,44.23
2019-04-05T18:44:24.073Z,41.63
2019-04-05T18:49:21.300Z,39.17
2019-04-05T18:54:18.343Z,51.90
2019-04-05T18:59:15.523Z,57.27
2019-04-05T19:04:12.550Z,42.27
2019-04-05T19:09:11.943Z,36.37
2019-04-05T19:14:08.733Z,37.33
2019-04-05T19:19:05.981Z,30.80
2019-04-05T19:24:03.171Z,30.20
2019-04-05T19:29:00.347Z,59.87
2019-04-05T19:48:54.179Z,76.90
2019-04-05T19:54:00.815Z,65.73
2019-04-05T19:58:50.341Z,66.07
2019-04-05T20:03:47.435Z,71.27
2019-04-05T20:08:44.455Z,75.00
2019-04-05T20:13:41.535Z,72.53
2019-04-05T20:18:38.748Z,66.97
2019-04-05T20:23:35.910Z,57.20
2019-04-05T20:28:33.081Z,50.97
2019-04-05T20:33:30.132Z,54.00
2019-04-05T20:38:27.304Z,48.73
2019-04-05T20:43:24.264Z,47.10
2019-04-05T20:48:21.295Z,50.87
2019-04-05T20:53:18.349Z,53.87
2019-04-05T20:58:16.203Z,46.23
2019-04-05T21:03:13.278Z,44.90
2019-04-05T21:08:10.363Z,40.17
2019-04-05T21:13:07.336Z,45.40
2019-04-05T21:18:04.845Z,43.97
2019-04-05T21:23:01.801Z,35.83
2019-04-05T21:27:58.869Z,40.40
2019-04-05T21:32:58.044Z,34.07
2019-04-05T21:37:55.156Z,46.73
2019-04-05T21:42:52.265Z,34.83
2019-04-05T21:47:49.359Z,37.43
2019-04-05T21:52:46.357Z,36.63
2019-04-05T21:57:43.679Z,35.73
2019-04-05T22:02:40.797Z,39.33
2019-04-05T22:07:37.803Z,39.83
2019-04-05T22:12:37.711Z,40.97
2019-04-05T22:17:34.925Z,34.00
2019-04-05T22:22:31.887Z,40.07
2019-04-05T22:27:28.973Z,32.40
2019-04-05T22:32:27.725Z,33.83
2019-04-05T22:37:26.486Z,32.73
2019-04-05T22:42:23.563Z,35.73
2019-04-05T22:47:20.556Z,34.00
2019-04-05T22:52:17.696Z,31.87
2019-04-05T22:57:14.736Z,36.90
2019-04-05T23:02:11.842Z,32.23
2019-04-05T23:07:10.189Z,32.93
2019-04-05T23:12:07.201Z,30.50
2019-04-05T23:17:04.177Z,32.67
2019-04-05T23:22:01.312Z,31.30
2019-04-05T23:26:58.264Z,32.60
2019-04-05T23:31:55.386Z,33.80
2019-04-05T23:36:52.383Z,33.27
2019-04-05T23:41:50.402Z,31.57
2019-04-05T23:46:47.350Z,29.27
2019-04-05T23:51:44.418Z,32.97
2019-04-05T23:56:41.465Z,30.53
